sensor_id;sensor_type;location;lat;lon;timestamp;P1;durP1;ratioP1;P2;durP2;ratioP2
13731;SDS011;6937;56.096;12.664;2023-11-21T00:00:46;6.10;;;4.32;;
13731;SDS011;6937;56.096;12.664;2023-11-21T00:03:12;5.35;;;3.90;;
13731;SDS011;6937;56.096;12.664;2023-11-21T00:05:40;6.75;;;4.43;;
13731;SDS011;6937;56.096;12.664;2023-11-21T00:08:06;5.80;;;4.53;;
13731;SDS011;6937;56.096;12.664;2023-11-21T00:10:32;4.25;;;3.80;;
13731;SDS011;6937;56.096;12.664;2023-11-21T00:12:57;4.78;;;3.83;;
13731;SDS011;6937;56.096;12.664;2023-11-21T00:15:23;5.00;;;3.95;;
13731;SDS011;6937;56.096;12.664;2023-11-21T00:17:48;5.95;;;4.60;;
13731;SDS011;6937;56.096;12.664;2023-11-21T00:20:13;5.65;;;4.10;;
13731;SDS011;6937;56.096;12.664;2023-11-21T00:22:39;5.97;;;4.20;;
13731;SDS011;6937;56.096;12.664;2023-11-21T00:25:05;4.72;;;3.80;;
13731;SDS011;6937;56.096;12.664;2023-11-21T00:27:34;5.53;;;3.63;;
13731;SDS011;6937;56.096;12.664;2023-11-21T00:30:00;6.40;;;4.38;;
13731;SDS011;6937;56.096;12.664;2023-11-21T00:32:25;5.72;;;3.72;;
13731;SDS011;6937;56.096;12.664;2023-11-21T00:34:50;6.13;;;3.92;;
13731;SDS011;6937;56.096;12.664;2023-11-21T00:37:16;5.28;;;4.40;;
13731;SDS011;6937;56.096;12.664;2023-11-21T00:39:41;5.40;;;4.03;;
13731;SDS011;6937;56.096;12.664;2023-11-21T00:42:06;5.15;;;4.05;;
13731;SDS011;6937;56.096;12.664;2023-11-21T00:44:33;6.28;;;4.00;;
13731;SDS011;6937;56.096;12.664;2023-11-21T00:46:59;5.60;;;4.30;;
13731;SDS011;6937;56.096;12.664;2023-11-21T00:49:24;6.03;;;3.75;;
13731;SDS011;6937;56.096;12.664;2023-11-21T00:51:50;4.90;;;4.40;;
13731;SDS011;6937;56.096;12.664;2023-11-21T00:54:15;4.57;;;3.90;;
13731;SDS011;6937;56.096;12.664;2023-11-21T00:56:42;5.68;;;4.05;;
13731;SDS011;6937;56.096;12.664;2023-11-21T00:59:07;5.60;;;4.65;;
13731;SDS011;6937;56.096;12.664;2023-11-21T01:01:33;5.05;;;4.28;;
13731;SDS011;6937;56.096;12.664;2023-11-21T01:03:58;4.30;;;3.47;;
13731;SDS011;6937;56.096;12.664;2023-11-21T01:06:23;5.50;;;4.38;;
13731;SDS011;6937;56.096;12.664;2023-11-21T01:08:49;4.60;;;3.78;;
13731;SDS011;6937;56.096;12.664;2023-11-21T01:11:14;5.45;;;4.28;;
13731;SDS011;6937;56.096;12.664;2023-11-21T01:13:40;4.82;;;3.40;;
13731;SDS011;6937;56.096;12.664;2023-11-21T01:16:06;4.45;;;3.53;;
13731;SDS011;6937;56.096;12.664;2023-11-21T01:18:32;4.53;;;3.45;;
13731;SDS011;6937;56.096;12.664;2023-11-21T01:20:58;3.67;;;3.25;;
13731;SDS011;6937;56.096;12.664;2023-11-21T01:23:25;3.58;;;3.17;;
13731;SDS011;6937;56.096;12.664;2023-11-21T01:25:50;4.85;;;3.45;;
13731;SDS011;6937;56.096;12.664;2023-11-21T01:28:16;3.80;;;3.10;;
13731;SDS011;6937;56.096;12.664;2023-11-21T01:30:42;5.75;;;3.25;;
13731;SDS011;6937;56.096;12.664;2023-11-21T01:33:07;5.25;;;3.67;;
13731;SDS011;6937;56.096;12.664;2023-11-21T01:35:33;3.92;;;3.47;;
13731;SDS011;6937;56.096;12.664;2023-11-21T01:37:59;4.38;;;3.53;;
13731;SDS011;6937;56.096;12.664;2023-11-21T01:40:24;4.15;;;3.47;;
13731;SDS011;6937;56.096;12.664;2023-11-21T01:42:49;4.72;;;3.55;;
13731;SDS011;6937;56.096;12.664;2023-11-21T01:45:15;4.25;;;3.67;;
13731;SDS011;6937;56.096;12.664;2023-11-21T01:47:41;4.55;;;3.47;;
13731;SDS011;6937;56.096;12.664;2023-11-21T01:50:07;5.20;;;3.17;;
13731;SDS011;6937;56.096;12.664;2023-11-21T01:52:37;4.75;;;3.58;;
13731;SDS011;6937;56.096;12.664;2023-11-21T01:55:04;5.05;;;3.55;;
13731;SDS011;6937;56.096;12.664;2023-11-21T01:57:33;3.95;;;3.45;;
13731;SDS011;6937;56.096;12.664;2023-11-21T01:59:59;5.20;;;3.53;;
13731;SDS011;6937;56.096;12.664;2023-11-21T02:02:41;4.32;;;3.65;;
13731;SDS011;6937;56.096;12.664;2023-11-21T02:05:07;8.52;;;4.00;;
13731;SDS011;6937;56.096;12.664;2023-11-21T02:07:34;4.43;;;3.70;;
13731;SDS011;6937;56.096;12.664;2023-11-21T02:10:00;5.18;;;4.18;;
13731;SDS011;6937;56.096;12.664;2023-11-21T02:12:25;6.07;;;3.75;;
13731;SDS011;6937;56.096;12.664;2023-11-21T02:14:51;4.20;;;3.63;;
13731;SDS011;6937;56.096;12.664;2023-11-21T02:17:17;5.05;;;4.13;;
13731;SDS011;6937;56.096;12.664;2023-11-21T02:19:43;4.93;;;3.88;;
13731;SDS011;6937;56.096;12.664;2023-11-21T02:22:09;4.38;;;3.78;;
13731;SDS011;6937;56.096;12.664;2023-11-21T02:24:36;4.40;;;3.47;;
13731;SDS011;6937;56.096;12.664;2023-11-21T02:27:02;5.05;;;3.67;;
13731;SDS011;6937;56.096;12.664;2023-11-21T02:29:27;5.43;;;3.63;;
13731;SDS011;6937;56.096;12.664;2023-11-21T02:31:54;5.00;;;3.40;;
13731;SDS011;6937;56.096;12.664;2023-11-21T02:34:20;6.22;;;3.15;;
13731;SDS011;6937;56.096;12.664;2023-11-21T02:36:46;5.28;;;3.80;;
13731;SDS011;6937;56.096;12.664;2023-11-21T02:39:15;5.13;;;3.90;;
13731;SDS011;6937;56.096;12.664;2023-11-21T02:41:41;6.10;;;3.70;;
13731;SDS011;6937;56.096;12.664;2023-11-21T02:44:07;6.15;;;3.80;;
13731;SDS011;6937;56.096;12.664;2023-11-21T02:46:33;4.40;;;3.55;;
13731;SDS011;6937;56.096;12.664;2023-11-21T02:48:59;5.30;;;3.85;;
13731;SDS011;6937;56.096;12.664;2023-11-21T02:51:29;4.53;;;3.78;;
13731;SDS011;6937;56.096;12.664;2023-11-21T02:53:55;4.13;;;3.53;;
13731;SDS011;6937;56.096;12.664;2023-11-21T02:56:25;6.45;;;4.20;;
13731;SDS011;6937;56.096;12.664;2023-11-21T02:58:56;5.63;;;3.83;;
13731;SDS011;6937;56.096;12.664;2023-11-21T03:01:22;5.55;;;3.75;;
13731;SDS011;6937;56.096;12.664;2023-11-21T03:03:49;5.15;;;3.97;;
13731;SDS011;6937;56.096;12.664;2023-11-21T03:06:16;4.10;;;3.65;;
13731;SDS011;6937;56.096;12.664;2023-11-21T03:08:45;4.18;;;3.20;;
13731;SDS011;6937;56.096;12.664;2023-11-21T03:11:11;5.28;;;3.70;;
13731;SDS011;6937;56.096;12.664;2023-11-21T03:13:38;5.85;;;3.97;;
13731;SDS011;6937;56.096;12.664;2023-11-21T03:16:09;5.28;;;4.07;;
13731;SDS011;6937;56.096;12.664;2023-11-21T03:18:35;5.32;;;3.95;;
13731;SDS011;6937;56.096;12.664;2023-11-21T03:21:07;4.78;;;3.25;;
13731;SDS011;6937;56.096;12.664;2023-11-21T03:23:36;5.55;;;4.03;;
13731;SDS011;6937;56.096;12.664;2023-11-21T03:26:02;4.97;;;3.83;;
13731;SDS011;6937;56.096;12.664;2023-11-21T03:28:28;4.78;;;3.55;;
13731;SDS011;6937;56.096;12.664;2023-11-21T03:30:55;6.00;;;3.50;;
13731;SDS011;6937;56.096;12.664;2023-11-21T03:33:21;6.63;;;3.92;;
13731;SDS011;6937;56.096;12.664;2023-11-21T03:35:47;5.28;;;3.80;;
13731;SDS011;6937;56.096;12.664;2023-11-21T03:38:13;5.00;;;3.63;;
13731;SDS011;6937;56.096;12.664;2023-11-21T03:40:38;6.18;;;4.05;;
13731;SDS011;6937;56.096;12.664;2023-11-21T03:43:04;6.13;;;3.80;;
13731;SDS011;6937;56.096;12.664;2023-11-21T03:45:30;5.63;;;3.60;;
13731;SDS011;6937;56.096;12.664;2023-11-21T03:47:55;4.20;;;3.38;;
13731;SDS011;6937;56.096;12.664;2023-11-21T03:50:21;5.45;;;3.80;;
13731;SDS011;6937;56.096;12.664;2023-11-21T03:52:46;5.05;;;3.38;;
13731;SDS011;6937;56.096;12.664;2023-11-21T03:55:11;5.97;;;3.85;;
13731;SDS011;6937;56.096;12.664;2023-11-21T03:57:37;4.80;;;3.63;;
13731;SDS011;6937;56.096;12.664;2023-11-21T04:00:03;5.75;;;3.30;;
13731;SDS011;6937;56.096;12.664;2023-11-21T04:02:33;5.05;;;3.90;;
13731;SDS011;6937;56.096;12.664;2023-11-21T04:04:59;7.25;;;3.92;;
13731;SDS011;6937;56.096;12.664;2023-11-21T04:07:24;4.78;;;4.15;;
13731;SDS011;6937;56.096;12.664;2023-11-21T04:09:49;5.00;;;4.03;;
13731;SDS011;6937;56.096;12.664;2023-11-21T04:12:15;5.68;;;4.00;;
13731;SDS011;6937;56.096;12.664;2023-11-21T04:14:40;4.90;;;3.45;;
13731;SDS011;6937;56.096;12.664;2023-11-21T04:17:06;4.45;;;3.55;;
13731;SDS011;6937;56.096;12.664;2023-11-21T04:19:31;5.72;;;3.70;;
13731;SDS011;6937;56.096;12.664;2023-11-21T04:21:56;5.63;;;3.67;;
13731;SDS011;6937;56.096;12.664;2023-11-21T04:24:22;6.35;;;4.07;;
13731;SDS011;6937;56.096;12.664;2023-11-21T04:26:47;9.27;;;3.60;;
13731;SDS011;6937;56.096;12.664;2023-11-21T04:29:12;4.75;;;3.63;;
13731;SDS011;6937;56.096;12.664;2023-11-21T04:31:38;6.32;;;3.92;;
13731;SDS011;6937;56.096;12.664;2023-11-21T04:34:03;5.97;;;3.67;;
13731;SDS011;6937;56.096;12.664;2023-11-21T04:36:31;4.22;;;3.33;;
13731;SDS011;6937;56.096;12.664;2023-11-21T04:38:57;4.82;;;3.38;;
13731;SDS011;6937;56.096;12.664;2023-11-21T04:41:22;4.63;;;3.50;;
13731;SDS011;6937;56.096;12.664;2023-11-21T04:43:47;6.38;;;4.20;;
13731;SDS011;6937;56.096;12.664;2023-11-21T04:46:14;5.03;;;3.65;;
13731;SDS011;6937;56.096;12.664;2023-11-21T04:48:39;5.18;;;3.83;;
13731;SDS011;6937;56.096;12.664;2023-11-21T04:51:04;7.15;;;4.40;;
13731;SDS011;6937;56.096;12.664;2023-11-21T04:53:30;5.47;;;3.97;;
13731;SDS011;6937;56.096;12.664;2023-11-21T04:55:55;4.85;;;3.38;;
13731;SDS011;6937;56.096;12.664;2023-11-21T04:58:20;7.32;;;4.15;;
13731;SDS011;6937;56.096;12.664;2023-11-21T05:00:46;6.18;;;4.32;;
13731;SDS011;6937;56.096;12.664;2023-11-21T05:03:11;6.13;;;4.30;;
13731;SDS011;6937;56.096;12.664;2023-11-21T05:05:37;4.75;;;3.47;;
13731;SDS011;6937;56.096;12.664;2023-11-21T05:08:02;5.65;;;3.53;;
13731;SDS011;6937;56.096;12.664;2023-11-21T05:10:29;4.95;;;3.47;;
13731;SDS011;6937;56.096;12.664;2023-11-21T05:12:55;5.78;;;3.40;;
13731;SDS011;6937;56.096;12.664;2023-11-21T05:15:20;5.90;;;4.28;;
13731;SDS011;6937;56.096;12.664;2023-11-21T05:17:46;6.25;;;4.13;;
13731;SDS011;6937;56.096;12.664;2023-11-21T05:20:15;5.05;;;4.00;;
13731;SDS011;6937;56.096;12.664;2023-11-21T05:22:48;5.18;;;4.00;;
13731;SDS011;6937;56.096;12.664;2023-11-21T05:25:14;7.75;;;4.30;;
13731;SDS011;6937;56.096;12.664;2023-11-21T05:27:40;6.30;;;3.90;;
13731;SDS011;6937;56.096;12.664;2023-11-21T05:30:06;5.32;;;3.78;;
13731;SDS011;6937;56.096;12.664;2023-11-21T05:32:34;5.70;;;3.90;;
13731;SDS011;6937;56.096;12.664;2023-11-21T05:34:59;5.65;;;3.75;;
13731;SDS011;6937;56.096;12.664;2023-11-21T05:37:25;5.30;;;3.40;;
13731;SDS011;6937;56.096;12.664;2023-11-21T05:39:52;8.52;;;4.22;;
13731;SDS011;6937;56.096;12.664;2023-11-21T05:42:18;6.93;;;3.72;;
13731;SDS011;6937;56.096;12.664;2023-11-21T05:44:43;4.90;;;3.65;;
13731;SDS011;6937;56.096;12.664;2023-11-21T05:47:08;5.65;;;3.70;;
13731;SDS011;6937;56.096;12.664;2023-11-21T05:49:34;4.72;;;3.20;;
13731;SDS011;6937;56.096;12.664;2023-11-21T05:52:00;6.45;;;3.50;;
13731;SDS011;6937;56.096;12.664;2023-11-21T05:54:25;5.38;;;3.70;;
13731;SDS011;6937;56.096;12.664;2023-11-21T05:56:51;5.07;;;3.30;;
13731;SDS011;6937;56.096;12.664;2023-11-21T05:59:17;4.70;;;3.30;;
13731;SDS011;6937;56.096;12.664;2023-11-21T06:01:42;5.32;;;3.42;;
13731;SDS011;6937;56.096;12.664;2023-11-21T06:04:07;4.40;;;3.38;;
13731;SDS011;6937;56.096;12.664;2023-11-21T06:06:34;4.63;;;3.35;;
13731;SDS011;6937;56.096;12.664;2023-11-21T06:09:00;5.18;;;4.00;;
13731;SDS011;6937;56.096;12.664;2023-11-21T06:11:25;4.80;;;3.17;;
13731;SDS011;6937;56.096;12.664;2023-11-21T06:13:51;5.93;;;3.22;;
13731;SDS011;6937;56.096;12.664;2023-11-21T06:16:18;6.28;;;3.50;;
13731;SDS011;6937;56.096;12.664;2023-11-21T06:18:45;4.65;;;3.60;;
13731;SDS011;6937;56.096;12.664;2023-11-21T06:21:11;4.70;;;3.45;;
13731;SDS011;6937;56.096;12.664;2023-11-21T06:23:36;5.78;;;3.55;;
13731;SDS011;6937;56.096;12.664;2023-11-21T06:26:01;5.45;;;3.45;;
13731;SDS011;6937;56.096;12.664;2023-11-21T06:28:27;5.50;;;3.95;;
13731;SDS011;6937;56.096;12.664;2023-11-21T06:30:52;5.25;;;3.67;;
13731;SDS011;6937;56.096;12.664;2023-11-21T06:33:18;5.75;;;3.83;;
13731;SDS011;6937;56.096;12.664;2023-11-21T06:35:44;7.50;;;4.20;;
13731;SDS011;6937;56.096;12.664;2023-11-21T06:38:10;5.70;;;3.80;;
13731;SDS011;6937;56.096;12.664;2023-11-21T06:40:35;5.72;;;4.10;;
13731;SDS011;6937;56.096;12.664;2023-11-21T06:43:01;6.05;;;4.38;;
13731;SDS011;6937;56.096;12.664;2023-11-21T06:45:27;4.85;;;3.50;;
13731;SDS011;6937;56.096;12.664;2023-11-21T06:47:52;5.55;;;3.83;;
13731;SDS011;6937;56.096;12.664;2023-11-21T06:50:18;5.95;;;4.07;;
13731;SDS011;6937;56.096;12.664;2023-11-21T06:52:43;6.88;;;3.95;;
13731;SDS011;6937;56.096;12.664;2023-11-21T06:55:08;4.95;;;3.92;;
13731;SDS011;6937;56.096;12.664;2023-11-21T06:57:34;7.18;;;3.25;;
13731;SDS011;6937;56.096;12.664;2023-11-21T07:00:00;5.25;;;4.10;;
13731;SDS011;6937;56.096;12.664;2023-11-21T07:02:25;5.20;;;3.65;;
13731;SDS011;6937;56.096;12.664;2023-11-21T07:04:51;4.65;;;3.50;;
13731;SDS011;6937;56.096;12.664;2023-11-21T07:07:16;6.30;;;3.55;;
13731;SDS011;6937;56.096;12.664;2023-11-21T07:09:48;4.75;;;3.40;;
13731;SDS011;6937;56.096;12.664;2023-11-21T07:12:14;5.07;;;3.50;;
13731;SDS011;6937;56.096;12.664;2023-11-21T07:14:39;4.57;;;3.22;;
13731;SDS011;6937;56.096;12.664;2023-11-21T07:17:06;4.60;;;3.90;;
13731;SDS011;6937;56.096;12.664;2023-11-21T07:19:31;4.30;;;3.10;;
13731;SDS011;6937;56.096;12.664;2023-11-21T07:21:57;4.20;;;3.38;;
13731;SDS011;6937;56.096;12.664;2023-11-21T07:24:22;4.35;;;3.63;;
13731;SDS011;6937;56.096;12.664;2023-11-21T07:26:48;4.90;;;3.08;;
13731;SDS011;6937;56.096;12.664;2023-11-21T07:29:13;6.88;;;3.50;;
13731;SDS011;6937;56.096;12.664;2023-11-21T07:31:39;3.97;;;2.97;;
13731;SDS011;6937;56.096;12.664;2023-11-21T07:34:06;4.50;;;3.22;;
13731;SDS011;6937;56.096;12.664;2023-11-21T07:36:32;3.67;;;3.00;;
13731;SDS011;6937;56.096;12.664;2023-11-21T07:38:58;5.82;;;3.33;;
13731;SDS011;6937;56.096;12.664;2023-11-21T07:41:23;5.15;;;3.65;;
13731;SDS011;6937;56.096;12.664;2023-11-21T07:43:49;6.45;;;3.45;;
13731;SDS011;6937;56.096;12.664;2023-11-21T07:46:14;4.65;;;3.60;;
13731;SDS011;6937;56.096;12.664;2023-11-21T07:48:40;4.90;;;3.45;;
13731;SDS011;6937;56.096;12.664;2023-11-21T07:51:07;6.13;;;3.10;;
13731;SDS011;6937;56.096;12.664;2023-11-21T07:53:33;4.45;;;3.17;;
13731;SDS011;6937;56.096;12.664;2023-11-21T07:56:03;4.57;;;3.22;;
13731;SDS011;6937;56.096;12.664;2023-11-21T07:58:29;4.45;;;2.85;;
13731;SDS011;6937;56.096;12.664;2023-11-21T08:00:55;4.00;;;3.10;;
13731;SDS011;6937;56.096;12.664;2023-11-21T08:03:21;4.30;;;2.78;;
13731;SDS011;6937;56.096;12.664;2023-11-21T08:05:47;4.43;;;3.03;;
13731;SDS011;6937;56.096;12.664;2023-11-21T08:08:12;5.15;;;2.95;;
13731;SDS011;6937;56.096;12.664;2023-11-21T08:10:38;3.83;;;3.08;;
13731;SDS011;6937;56.096;12.664;2023-11-21T08:13:07;5.28;;;2.58;;
13731;SDS011;6937;56.096;12.664;2023-11-21T08:15:34;3.90;;;2.88;;
13731;SDS011;6937;56.096;12.664;2023-11-21T08:18:00;3.42;;;2.60;;
13731;SDS011;6937;56.096;12.664;2023-11-21T08:20:25;3.65;;;2.70;;
13731;SDS011;6937;56.096;12.664;2023-11-21T08:22:51;4.38;;;2.97;;
13731;SDS011;6937;56.096;12.664;2023-11-21T08:25:21;4.70;;;2.95;;
13731;SDS011;6937;56.096;12.664;2023-11-21T08:27:47;3.47;;;2.58;;
13731;SDS011;6937;56.096;12.664;2023-11-21T08:30:12;6.05;;;2.90;;
13731;SDS011;6937;56.096;12.664;2023-11-21T08:32:41;4.55;;;2.88;;
13731;SDS011;6937;56.096;12.664;2023-11-21T08:35:07;4.82;;;2.78;;
13731;SDS011;6937;56.096;12.664;2023-11-21T08:37:33;5.82;;;3.13;;
13731;SDS011;6937;56.096;12.664;2023-11-21T08:40:02;4.75;;;2.90;;
13731;SDS011;6937;56.096;12.664;2023-11-21T08:42:28;3.53;;;3.03;;
13731;SDS011;6937;56.096;12.664;2023-11-21T08:44:55;4.20;;;2.67;;
13731;SDS011;6937;56.096;12.664;2023-11-21T08:47:23;3.97;;;2.97;;
13731;SDS011;6937;56.096;12.664;2023-11-21T08:49:51;5.45;;;3.03;;
13731;SDS011;6937;56.096;12.664;2023-11-21T08:52:20;6.22;;;3.03;;
13731;SDS011;6937;56.096;12.664;2023-11-21T08:54:51;3.95;;;2.90;;
13731;SDS011;6937;56.096;12.664;2023-11-21T08:57:27;4.28;;;2.53;;
13731;SDS011;6937;56.096;12.664;2023-11-21T08:59:53;5.53;;;2.45;;
13731;SDS011;6937;56.096;12.664;2023-11-21T09:02:20;5.45;;;2.65;;
13731;SDS011;6937;56.096;12.664;2023-11-21T09:04:51;4.07;;;2.22;;
13731;SDS011;6937;56.096;12.664;2023-11-21T09:07:17;3.35;;;2.50;;
13731;SDS011;6937;56.096;12.664;2023-11-21T09:09:48;5.80;;;2.72;;
13731;SDS011;6937;56.096;12.664;2023-11-21T09:12:14;3.05;;;2.03;;
13731;SDS011;6937;56.096;12.664;2023-11-21T09:14:40;4.03;;;2.65;;
13731;SDS011;6937;56.096;12.664;2023-11-21T09:17:06;2.90;;;2.47;;
13731;SDS011;6937;56.096;12.664;2023-11-21T09:19:38;4.57;;;2.70;;
13731;SDS011;6937;56.096;12.664;2023-11-21T09:22:04;4.05;;;2.47;;
13731;SDS011;6937;56.096;12.664;2023-11-21T09:24:33;4.55;;;2.55;;
13731;SDS011;6937;56.096;12.664;2023-11-21T09:26:59;3.42;;;2.60;;
13731;SDS011;6937;56.096;12.664;2023-11-21T09:29:25;3.10;;;2.20;;
13731;SDS011;6937;56.096;12.664;2023-11-21T09:31:53;3.28;;;2.20;;
13731;SDS011;6937;56.096;12.664;2023-11-21T09:34:20;3.55;;;2.28;;
13731;SDS011;6937;56.096;12.664;2023-11-21T09:36:45;4.45;;;2.28;;
13731;SDS011;6937;56.096;12.664;2023-11-21T09:39:11;3.15;;;2.33;;
13731;SDS011;6937;56.096;12.664;2023-11-21T09:41:52;2.60;;;2.35;;
13731;SDS011;6937;56.096;12.664;2023-11-21T09:44:28;3.70;;;2.10;;
13731;SDS011;6937;56.096;12.664;2023-11-21T09:47:00;4.72;;;1.92;;
13731;SDS011;6937;56.096;12.664;2023-11-21T09:49:27;3.38;;;2.42;;
13731;SDS011;6937;56.096;12.664;2023-11-21T09:51:55;2.30;;;1.95;;
13731;SDS011;6937;56.096;12.664;2023-11-21T09:54:24;4.88;;;2.83;;
13731;SDS011;6937;56.096;12.664;2023-11-21T09:56:50;3.85;;;2.40;;
13731;SDS011;6937;56.096;12.664;2023-11-21T09:59:15;4.65;;;2.05;;
13731;SDS011;6937;56.096;12.664;2023-11-21T10:01:41;4.57;;;2.17;;
13731;SDS011;6937;56.096;12.664;2023-11-21T10:04:10;2.40;;;2.00;;
13731;SDS011;6937;56.096;12.664;2023-11-21T10:06:40;4.72;;;2.00;;
13731;SDS011;6937;56.096;12.664;2023-11-21T10:09:11;4.97;;;2.08;;
13731;SDS011;6937;56.096;12.664;2023-11-21T10:11:42;3.33;;;2.10;;
13731;SDS011;6937;56.096;12.664;2023-11-21T10:14:10;3.72;;;2.08;;
13731;SDS011;6937;56.096;12.664;2023-11-21T10:16:37;2.97;;;1.73;;
13731;SDS011;6937;56.096;12.664;2023-11-21T10:19:04;2.08;;;1.50;;
13731;SDS011;6937;56.096;12.664;2023-11-21T10:21:32;4.80;;;2.17;;
13731;SDS011;6937;56.096;12.664;2023-11-21T10:23:58;4.22;;;1.90;;
13731;SDS011;6937;56.096;12.664;2023-11-21T10:26:23;3.22;;;1.67;;
13731;SDS011;6937;56.096;12.664;2023-11-21T10:29:01;4.80;;;2.05;;
13731;SDS011;6937;56.096;12.664;2023-11-21T10:31:29;3.28;;;2.13;;
13731;SDS011;6937;56.096;12.664;2023-11-21T10:33:57;3.22;;;1.77;;
13731;SDS011;6937;56.096;12.664;2023-11-21T10:36:38;3.47;;;1.90;;
13731;SDS011;6937;56.096;12.664;2023-11-21T10:39:04;2.55;;;1.70;;
13731;SDS011;6937;56.096;12.664;2023-11-21T10:41:29;3.35;;;1.60;;
13731;SDS011;6937;56.096;12.664;2023-11-21T10:43:54;2.60;;;1.75;;
13731;SDS011;6937;56.096;12.664;2023-11-21T10:46:21;3.03;;;1.80;;
13731;SDS011;6937;56.096;12.664;2023-11-21T10:48:52;2.42;;;2.13;;
13731;SDS011;6937;56.096;12.664;2023-11-21T10:51:20;2.03;;;1.80;;
13731;SDS011;6937;56.096;12.664;2023-11-21T10:53:45;2.45;;;1.40;;
13731;SDS011;6937;56.096;12.664;2023-11-21T10:56:11;2.20;;;1.50;;
13731;SDS011;6937;56.096;12.664;2023-11-21T10:58:42;2.05;;;1.80;;
13731;SDS011;6937;56.096;12.664;2023-11-21T11:01:08;2.50;;;1.85;;
13731;SDS011;6937;56.096;12.664;2023-11-21T11:03:37;3.38;;;2.20;;
13731;SDS011;6937;56.096;12.664;2023-11-21T11:06:03;3.85;;;2.10;;
13731;SDS011;6937;56.096;12.664;2023-11-21T11:08:32;2.92;;;2.15;;
13731;SDS011;6937;56.096;12.664;2023-11-21T11:11:00;3.42;;;2.00;;
13731;SDS011;6937;56.096;12.664;2023-11-21T11:13:25;2.05;;;1.67;;
13731;SDS011;6937;56.096;12.664;2023-11-21T11:15:50;3.45;;;1.90;;
13731;SDS011;6937;56.096;12.664;2023-11-21T11:18:21;4.38;;;2.30;;
13731;SDS011;6937;56.096;12.664;2023-11-21T11:20:48;2.75;;;1.70;;
13731;SDS011;6937;56.096;12.664;2023-11-21T11:23:26;2.28;;;1.85;;
13731;SDS011;6937;56.096;12.664;2023-11-21T11:29:01;2.83;;;2.17;;
13731;SDS011;6937;56.096;12.664;2023-11-21T11:34:30;2.97;;;2.30;;
13731;SDS011;6937;56.096;12.664;2023-11-21T11:37:00;2.70;;;2.10;;
13731;SDS011;6937;56.096;12.664;2023-11-21T11:39:41;3.08;;;2.33;;
13731;SDS011;6937;56.096;12.664;2023-11-21T11:42:10;2.95;;;1.85;;
13731;SDS011;6937;56.096;12.664;2023-11-21T11:50:01;2.33;;;1.90;;
13731;SDS011;6937;56.096;12.664;2023-11-21T11:52:33;2.08;;;1.60;;
13731;SDS011;6937;56.096;12.664;2023-11-21T11:55:10;2.55;;;2.10;;
13731;SDS011;6937;56.096;12.664;2023-11-21T11:57:37;3.53;;;1.98;;
13731;SDS011;6937;56.096;12.664;2023-11-21T12:02:36;4.78;;;2.00;;
13731;SDS011;6937;56.096;12.664;2023-11-21T12:05:06;2.70;;;1.85;;
13731;SDS011;6937;56.096;12.664;2023-11-21T12:10:15;3.00;;;2.05;;
13731;SDS011;6937;56.096;12.664;2023-11-21T12:12:49;3.08;;;2.28;;
13731;SDS011;6937;56.096;12.664;2023-11-21T12:15:19;2.42;;;2.03;;
13731;SDS011;6937;56.096;12.664;2023-11-21T12:17:46;2.95;;;1.90;;
13731;SDS011;6937;56.096;12.664;2023-11-21T12:20:12;3.00;;;2.08;;
13731;SDS011;6937;56.096;12.664;2023-11-21T12:22:45;2.38;;;1.67;;
13731;SDS011;6937;56.096;12.664;2023-11-21T12:25:24;2.63;;;1.80;;
13731;SDS011;6937;56.096;12.664;2023-11-21T12:27:53;4.90;;;2.10;;
13731;SDS011;6937;56.096;12.664;2023-11-21T12:30:20;2.40;;;1.52;;
13731;SDS011;6937;56.096;12.664;2023-11-21T12:32:56;2.22;;;1.80;;
13731;SDS011;6937;56.096;12.664;2023-11-21T12:35:27;2.60;;;1.88;;
13731;SDS011;6937;56.096;12.664;2023-11-21T12:38:01;3.28;;;1.95;;
13731;SDS011;6937;56.096;12.664;2023-11-21T12:40:28;1.60;;;1.45;;
13731;SDS011;6937;56.096;12.664;2023-11-21T12:42:57;2.55;;;1.92;;
13731;SDS011;6937;56.096;12.664;2023-11-21T12:45:26;1.77;;;1.60;;
13731;SDS011;6937;56.096;12.664;2023-11-21T12:47:56;2.05;;;1.70;;
13731;SDS011;6937;56.096;12.664;2023-11-21T12:50:28;3.15;;;1.70;;
13731;SDS011;6937;56.096;12.664;2023-11-21T12:53:03;3.67;;;1.90;;
13731;SDS011;6937;56.096;12.664;2023-11-21T12:55:37;2.55;;;1.70;;
13731;SDS011;6937;56.096;12.664;2023-11-21T12:58:04;2.08;;;1.67;;
13731;SDS011;6937;56.096;12.664;2023-11-21T13:00:44;2.38;;;1.90;;
13731;SDS011;6937;56.096;12.664;2023-11-21T13:03:12;1.45;;;1.35;;
13731;SDS011;6937;56.096;12.664;2023-11-21T13:05:41;2.20;;;2.00;;
13731;SDS011;6937;56.096;12.664;2023-11-21T13:08:10;1.88;;;1.77;;
13731;SDS011;6937;56.096;12.664;2023-11-21T13:10:42;2.05;;;1.65;;
13731;SDS011;6937;56.096;12.664;2023-11-21T13:13:12;2.28;;;1.88;;
13731;SDS011;6937;56.096;12.664;2023-11-21T13:15:48;2.10;;;1.80;;
13731;SDS011;6937;56.096;12.664;2023-11-21T13:18:15;1.92;;;1.67;;
13731;SDS011;6937;56.096;12.664;2023-11-21T13:20:42;1.52;;;1.42;;
13731;SDS011;6937;56.096;12.664;2023-11-21T13:23:09;1.83;;;1.60;;
13731;SDS011;6937;56.096;12.664;2023-11-21T13:25:37;2.08;;;1.60;;
13731;SDS011;6937;56.096;12.664;2023-11-21T13:28:05;3.35;;;1.85;;
13731;SDS011;6937;56.096;12.664;2023-11-21T13:30:31;1.70;;;1.60;;
13731;SDS011;6937;56.096;12.664;2023-11-21T13:33:02;1.70;;;1.60;;
13731;SDS011;6937;56.096;12.664;2023-11-21T13:35:34;2.17;;;1.50;;
13731;SDS011;6937;56.096;12.664;2023-11-21T13:38:11;1.63;;;1.52;;
13731;SDS011;6937;56.096;12.664;2023-11-21T13:40:38;2.42;;;1.73;;
13731;SDS011;6937;56.096;12.664;2023-11-21T13:43:11;2.45;;;1.70;;
13731;SDS011;6937;56.096;12.664;2023-11-21T13:45:38;2.65;;;1.92;;
13731;SDS011;6937;56.096;12.664;2023-11-21T13:48:04;2.08;;;1.88;;
13731;SDS011;6937;56.096;12.664;2023-11-21T13:50:35;2.47;;;1.73;;
13731;SDS011;6937;56.096;12.664;2023-11-21T13:53:01;2.20;;;2.00;;
13731;SDS011;6937;56.096;12.664;2023-11-21T13:55:33;1.85;;;1.42;;
13731;SDS011;6937;56.096;12.664;2023-11-21T13:58:00;1.95;;;1.80;;
13731;SDS011;6937;56.096;12.664;2023-11-21T14:00:29;2.80;;;1.73;;
13731;SDS011;6937;56.096;12.664;2023-11-21T14:03:13;2.85;;;1.73;;
13731;SDS011;6937;56.096;12.664;2023-11-21T14:05:46;1.63;;;1.48;;
13731;SDS011;6937;56.096;12.664;2023-11-21T14:08:16;2.13;;;1.83;;
13731;SDS011;6937;56.096;12.664;2023-11-21T14:10:53;2.90;;;1.63;;
13731;SDS011;6937;56.096;12.664;2023-11-21T14:13:23;2.22;;;1.55;;
13731;SDS011;6937;56.096;12.664;2023-11-21T14:15:52;3.90;;;1.92;;
13731;SDS011;6937;56.096;12.664;2023-11-21T14:18:24;2.28;;;1.70;;
13731;SDS011;6937;56.096;12.664;2023-11-21T14:20:59;2.20;;;1.70;;
13731;SDS011;6937;56.096;12.664;2023-11-21T14:23:25;1.85;;;1.67;;
13731;SDS011;6937;56.096;12.664;2023-11-21T14:25:50;3.53;;;1.60;;
13731;SDS011;6937;56.096;12.664;2023-11-21T14:28:16;1.70;;;1.60;;
13731;SDS011;6937;56.096;12.664;2023-11-21T14:30:43;1.65;;;1.55;;
13731;SDS011;6937;56.096;12.664;2023-11-21T14:33:11;2.95;;;1.55;;
13731;SDS011;6937;56.096;12.664;2023-11-21T14:35:37;3.33;;;2.05;;
13731;SDS011;6937;56.096;12.664;2023-11-21T14:38:02;3.50;;;2.47;;
13731;SDS011;6937;56.096;12.664;2023-11-21T14:40:29;3.15;;;2.30;;
13731;SDS011;6937;56.096;12.664;2023-11-21T14:42:59;3.10;;;2.15;;
13731;SDS011;6937;56.096;12.664;2023-11-21T14:45:25;2.30;;;2.10;;
13731;SDS011;6937;56.096;12.664;2023-11-21T14:47:52;2.42;;;2.20;;
13731;SDS011;6937;56.096;12.664;2023-11-21T14:50:29;2.20;;;2.00;;
13731;SDS011;6937;56.096;12.664;2023-11-21T14:53:13;2.97;;;2.00;;
13731;SDS011;6937;56.096;12.664;2023-11-21T14:55:39;2.90;;;2.13;;
13731;SDS011;6937;56.096;12.664;2023-11-21T14:58:05;5.50;;;2.20;;
13731;SDS011;6937;56.096;12.664;2023-11-21T15:00:30;2.58;;;2.20;;
13731;SDS011;6937;56.096;12.664;2023-11-21T15:03:04;3.90;;;2.22;;
13731;SDS011;6937;56.096;12.664;2023-11-21T15:05:30;2.95;;;2.33;;